sensor_id;sensor_type;location;lat;lon;timestamp;pressure;altitude;pressure_sealevel;temperature
79148;BMP280;68562;51.600;6.524;2024-02-21T00:00:00;1021.6;;;13.7
79148;BMP280;68562;51.600;6.524;2024-02-21T00:05:02;1021.6;;;13.7
79148;BMP280;68562;51.600;6.524;2024-02-21T00:10:00;1021.4;;;13.7
79148;BMP280;68562;51.600;6.524;2024-02-21T00:15:00;1021.3;;;13.9
79148;BMP280;68562;51.600;6.524;2024-02-21T00:20:02;1021.3;;;13.8
79148;BMP280;68562;51.600;6.524;2024-02-21T00:25:00;1021.2;;;13.9
79148;BMP280;68562;51.600;6.524;2024-02-21T00:30:00;1021.1;;;13.8
79148;BMP280;68562;51.600;6.524;2024-02-21T00:35:00;1021.2;;;13.8
79148;BMP280;68562;51.600;6.524;2024-02-21T00:40:00;1021.1;;;13.8
79148;BMP280;68562;51.600;6.524;2024-02-21T00:45:00;1021.0;;;13.9
79148;BMP280;68562;51.600;6.524;2024-02-21T00:50:00;1021.0;;;13.9
79148;BMP280;68562;51.600;6.524;2024-02-21T00:55:00;1020.9;;;13.9
79148;BMP280;68562;51.600;6.524;2024-02-21T01:00:01;1020.8;;;13.9
79148;BMP280;68562;51.600;6.524;2024-02-21T01:05:01;1020.8;;;13.8
79148;BMP280;68562;51.600;6.524;2024-02-21T01:10:00;1020.6;;;13.8
79148;BMP280;68562;51.600;6.524;2024-02-21T01:15:00;1020.5;;;13.9
79148;BMP280;68562;51.600;6.524;2024-02-21T01:20:00;1020.6;;;13.8
79148;BMP280;68562;51.600;6.524;2024-02-21T01:25:00;1020.5;;;13.7
79148;BMP280;68562;51.600;6.524;2024-02-21T01:30:01;1020.4;;;13.8
79148;BMP280;68562;51.600;6.524;2024-02-21T01:35:00;1020.3;;;13.6
79148;BMP280;68562;51.600;6.524;2024-02-21T01:40:00;1020.3;;;13.6
79148;BMP280;68562;51.600;6.524;2024-02-21T01:45:00;1020.3;;;13.4
79148;BMP280;68562;51.600;6.524;2024-02-21T01:50:00;1020.4;;;13.4
79148;BMP280;68562;51.600;6.524;2024-02-21T01:55:00;1020.2;;;13.4
79148;BMP280;68562;51.600;6.524;2024-02-21T02:00:00;1020.1;;;13.5
79148;BMP280;68562;51.600;6.524;2024-02-21T02:05:00;1020.0;;;13.4
79148;BMP280;68562;51.600;6.524;2024-02-21T02:10:00;1019.9;;;13.5
79148;BMP280;68562;51.600;6.524;2024-02-21T02:15:01;1019.8;;;13.5
79148;BMP280;68562;51.600;6.524;2024-02-21T02:20:00;1019.6;;;13.5
79148;BMP280;68562;51.600;6.524;2024-02-21T02:25:01;1019.5;;;13.3
79148;BMP280;68562;51.600;6.524;2024-02-21T02:30:00;1019.6;;;13.4
79148;BMP280;68562;51.600;6.524;2024-02-21T02:35:00;1019.4;;;13.3
79148;BMP280;68562;51.600;6.524;2024-02-21T02:40:02;1019.5;;;13.3
79148;BMP280;68562;51.600;6.524;2024-02-21T02:45:00;1019.5;;;13.0
79148;BMP280;68562;51.600;6.524;2024-02-21T02:50:00;1019.6;;;13.1
79148;BMP280;68562;51.600;6.524;2024-02-21T02:55:00;1019.5;;;13.2
79148;BMP280;68562;51.600;6.524;2024-02-21T03:00:00;1019.4;;;13.2
79148;BMP280;68562;51.600;6.524;2024-02-21T03:05:00;1019.3;;;13.2
79148;BMP280;68562;51.600;6.524;2024-02-21T03:10:02;1019.3;;;13.3
79148;BMP280;68562;51.600;6.524;2024-02-21T03:15:00;1019.3;;;13.4
79148;BMP280;68562;51.600;6.524;2024-02-21T03:20:00;1019.2;;;13.5
79148;BMP280;68562;51.600;6.524;2024-02-21T03:25:00;1019.1;;;13.4
79148;BMP280;68562;51.600;6.524;2024-02-21T03:30:00;1019.2;;;13.3
79148;BMP280;68562;51.600;6.524;2024-02-21T03:35:00;1019.1;;;13.4
79148;BMP280;68562;51.600;6.524;2024-02-21T03:40:00;1019.1;;;13.4
79148;BMP280;68562;51.600;6.524;2024-02-21T03:45:00;1019.1;;;13.4
79148;BMP280;68562;51.600;6.524;2024-02-21T03:50:00;1019.1;;;13.3
79148;BMP280;68562;51.600;6.524;2024-02-21T03:55:02;1019.0;;;13.2
79148;BMP280;68562;51.600;6.524;2024-02-21T04:00:00;1019.0;;;13.4
79148;BMP280;68562;51.600;6.524;2024-02-21T04:05:00;1019.0;;;13.4
79148;BMP280;68562;51.600;6.524;2024-02-21T04:10:01;1018.9;;;13.4
79148;BMP280;68562;51.600;6.524;2024-02-21T04:15:00;1018.8;;;13.6
79148;BMP280;68562;51.600;6.524;2024-02-21T04:20:02;1018.9;;;13.6
79148;BMP280;68562;51.600;6.524;2024-02-21T04:25:00;1018.9;;;13.6
79148;BMP280;68562;51.600;6.524;2024-02-21T04:30:00;1018.9;;;13.7
79148;BMP280;68562;51.600;6.524;2024-02-21T04:35:00;1018.8;;;13.8
79148;BMP280;68562;51.600;6.524;2024-02-21T04:40:01;1018.8;;;13.8
79148;BMP280;68562;51.600;6.524;2024-02-21T04:45:00;1018.8;;;13.8
79148;BMP280;68562;51.600;6.524;2024-02-21T04:50:00;1018.8;;;13.8
79148;BMP280;68562;51.600;6.524;2024-02-21T04:55:00;1018.9;;;13.8
79148;BMP280;68562;51.600;6.524;2024-02-21T05:00:00;1018.8;;;13.8
79148;BMP280;68562;51.600;6.524;2024-02-21T05:05:00;1018.8;;;13.8
79148;BMP280;68562;51.600;6.524;2024-02-21T05:10:01;1018.7;;;13.8
79148;BMP280;68562;51.600;6.524;2024-02-21T05:15:00;1018.7;;;13.9
79148;BMP280;68562;51.600;6.524;2024-02-21T05:20:00;1018.7;;;13.8
79148;BMP280;68562;51.600;6.524;2024-02-21T05:25:00;1018.6;;;13.8
79148;BMP280;68562;51.600;6.524;2024-02-21T05:30:00;1018.4;;;13.6
79148;BMP280;68562;51.600;6.524;2024-02-21T05:35:00;1018.4;;;13.7
79148;BMP280;68562;51.600;6.524;2024-02-21T05:40:00;1018.3;;;13.8
79148;BMP280;68562;51.600;6.524;2024-02-21T05:45:00;1018.4;;;13.8
79148;BMP280;68562;51.600;6.524;2024-02-21T05:50:00;1018.3;;;13.6
79148;BMP280;68562;51.600;6.524;2024-02-21T05:55:00;1018.2;;;13.8
79148;BMP280;68562;51.600;6.524;2024-02-21T06:00:03;1018.2;;;13.7
79148;BMP280;68562;51.600;6.524;2024-02-21T06:05:00;1018.1;;;13.7
79148;BMP280;68562;51.600;6.524;2024-02-21T06:10:01;1017.9;;;13.8
79148;BMP280;68562;51.600;6.524;2024-02-21T06:15:00;1017.9;;;13.8
79148;BMP280;68562;51.600;6.524;2024-02-21T06:20:00;1017.9;;;13.7
79148;BMP280;68562;51.600;6.524;2024-02-21T06:25:02;1017.9;;;13.7
79148;BMP280;68562;51.600;6.524;2024-02-21T06:30:00;1017.8;;;13.7
79148;BMP280;68562;51.600;6.524;2024-02-21T06:35:00;1017.7;;;13.7
79148;BMP280;68562;51.600;6.524;2024-02-21T06:40:00;1017.7;;;13.5
79148;BMP280;68562;51.600;6.524;2024-02-21T06:45:00;1017.7;;;13.6
79148;BMP280;68562;51.600;6.524;2024-02-21T06:50:00;1017.6;;;13.5
79148;BMP280;68562;51.600;6.524;2024-02-21T06:55:02;1017.6;;;13.5
79148;BMP280;68562;51.600;6.524;2024-02-21T07:00:00;1017.7;;;13.4
79148;BMP280;68562;51.600;6.524;2024-02-21T07:05:00;1017.6;;;13.5
79148;BMP280;68562;51.600;6.524;2024-02-21T07:10:00;1017.6;;;13.5
79148;BMP280;68562;51.600;6.524;2024-02-21T07:15:00;1017.6;;;13.5
79148;BMP280;68562;51.600;6.524;2024-02-21T07:20:00;1017.6;;;13.5
79148;BMP280;68562;51.600;6.524;2024-02-21T07:25:02;1017.6;;;13.5
79148;BMP280;68562;51.600;6.524;2024-02-21T07:30:00;1017.5;;;13.5
79148;BMP280;68562;51.600;6.524;2024-02-21T07:35:00;1017.5;;;13.6
79148;BMP280;68562;51.600;6.524;2024-02-21T07:40:00;1017.5;;;13.7
79148;BMP280;68562;51.600;6.524;2024-02-21T07:45:00;1017.4;;;13.6
79148;BMP280;68562;51.600;6.524;2024-02-21T07:50:01;1017.3;;;13.6
79148;BMP280;68562;51.600;6.524;2024-02-21T07:55:00;1017.2;;;13.5
79148;BMP280;68562;51.600;6.524;2024-02-21T08:00:00;1017.3;;;13.5
79148;BMP280;68562;51.600;6.524;2024-02-21T08:05:02;1017.1;;;13.7
79148;BMP280;68562;51.600;6.524;2024-02-21T08:10:00;1017.0;;;13.7
79148;BMP280;68562;51.600;6.524;2024-02-21T08:15:00;1017.0;;;13.8
79148;BMP280;68562;51.600;6.524;2024-02-21T08:20:01;1016.8;;;13.9
79148;BMP280;68562;51.600;6.524;2024-02-21T08:25:00;1016.7;;;13.8
79148;BMP280;68562;51.600;6.524;2024-02-21T08:30:00;1016.6;;;13.7
79148;BMP280;68562;51.600;6.524;2024-02-21T08:35:00;1016.5;;;13.8
79148;BMP280;68562;51.600;6.524;2024-02-21T08:40:00;1016.6;;;13.7
79148;BMP280;68562;51.600;6.524;2024-02-21T08:45:00;1016.5;;;13.6
79148;BMP280;68562;51.600;6.524;2024-02-21T08:50:01;1016.4;;;13.8
79148;BMP280;68562;51.600;6.524;2024-02-21T08:55:00;1016.3;;;13.9
79148;BMP280;68562;51.600;6.524;2024-02-21T09:00:00;1016.3;;;13.9
79148;BMP280;68562;51.600;6.524;2024-02-21T09:05:01;1016.2;;;13.8
79148;BMP280;68562;51.600;6.524;2024-02-21T09:10:00;1016.2;;;13.7
79148;BMP280;68562;51.600;6.524;2024-02-21T09:15:00;1016.2;;;13.9
79148;BMP280;68562;51.600;6.524;2024-02-21T09:20:01;1016.0;;;13.8
79148;BMP280;68562;51.600;6.524;2024-02-21T09:25:00;1015.9;;;14.0
79148;BMP280;68562;51.600;6.524;2024-02-21T09:30:00;1015.9;;;13.9
79148;BMP280;68562;51.600;6.524;2024-02-21T09:35:00;1015.9;;;13.9
79148;BMP280;68562;51.600;6.524;2024-02-21T09:40:00;1015.9;;;14.0
79148;BMP280;68562;51.600;6.524;2024-02-21T09:45:02;1016.0;;;14.0
79148;BMP280;68562;51.600;6.524;2024-02-21T09:50:03;1016.0;;;14.1
79148;BMP280;68562;51.600;6.524;2024-02-21T09:55:01;1015.9;;;13.8
79148;BMP280;68562;51.600;6.524;2024-02-21T10:00:00;1015.9;;;13.7
79148;BMP280;68562;51.600;6.524;2024-02-21T10:05:00;1015.9;;;13.7
79148;BMP280;68562;51.600;6.524;2024-02-21T10:10:01;1015.8;;;13.8
79148;BMP280;68562;51.600;6.524;2024-02-21T10:15:01;1015.7;;;14.0
79148;BMP280;68562;51.600;6.524;2024-02-21T10:20:06;1015.6;;;14.0
79148;BMP280;68562;51.600;6.524;2024-02-21T10:25:07;1015.5;;;14.0
79148;BMP280;68562;51.600;6.524;2024-02-21T10:30:00;1015.4;;;14.0
79148;BMP280;68562;51.600;6.524;2024-02-21T10:35:01;1015.3;;;13.9
79148;BMP280;68562;51.600;6.524;2024-02-21T10:40:01;1015.1;;;14.1
79148;BMP280;68562;51.600;6.524;2024-02-21T10:45:01;1015.0;;;14.0
79148;BMP280;68562;51.600;6.524;2024-02-21T10:50:03;1014.9;;;13.8
79148;BMP280;68562;51.600;6.524;2024-02-21T10:55:04;1014.7;;;14.0
79148;BMP280;68562;51.600;6.524;2024-02-21T11:00:01;1014.6;;;14.0
79148;BMP280;68562;51.600;6.524;2024-02-21T11:05:01;1014.4;;;14.2
79148;BMP280;68562;51.600;6.524;2024-02-21T11:10:00;1014.2;;;14.3
79148;BMP280;68562;51.600;6.524;2024-02-21T11:15:04;1014.0;;;14.5
79148;BMP280;68562;51.600;6.524;2024-02-21T11:20:10;1013.8;;;14.5
79148;BMP280;68562;51.600;6.524;2024-02-21T11:25:06;1013.5;;;14.5
79148;BMP280;68562;51.600;6.524;2024-02-21T11:30:04;1013.6;;;14.5
79148;BMP280;68562;51.600;6.524;2024-02-21T11:35:01;1013.3;;;14.7
79148;BMP280;68562;51.600;6.524;2024-02-21T11:40:01;1013.1;;;14.6
79148;BMP280;68562;51.600;6.524;2024-02-21T11:45:00;1013.1;;;14.7
79148;BMP280;68562;51.600;6.524;2024-02-21T11:50:00;1012.9;;;14.9
79148;BMP280;68562;51.600;6.524;2024-02-21T11:55:00;1013.0;;;14.9
79148;BMP280;68562;51.600;6.524;2024-02-21T12:00:12;1012.9;;;14.7
79148;BMP280;68562;51.600;6.524;2024-02-21T12:05:00;1012.8;;;14.8
79148;BMP280;68562;51.600;6.524;2024-02-21T12:10:00;1012.6;;;15.0
79148;BMP280;68562;51.600;6.524;2024-02-21T12:15:01;1012.4;;;14.7
79148;BMP280;68562;51.600;6.524;2024-02-21T12:20:00;1012.5;;;14.8
79148;BMP280;68562;51.600;6.524;2024-02-21T12:25:03;1012.4;;;14.8
79148;BMP280;68562;51.600;6.524;2024-02-21T12:30:00;1012.3;;;14.9
79148;BMP280;68562;51.600;6.524;2024-02-21T12:35:00;1012.1;;;15.1
79148;BMP280;68562;51.600;6.524;2024-02-21T12:40:00;1012.1;;;15.2
79148;BMP280;68562;51.600;6.524;2024-02-21T12:45:01;1011.8;;;15.3
79148;BMP280;68562;51.600;6.524;2024-02-21T12:50:00;1011.7;;;15.4
79148;BMP280;68562;51.600;6.524;2024-02-21T12:55:00;1011.6;;;15.6
79148;BMP280;68562;51.600;6.524;2024-02-21T13:00:00;1011.5;;;15.5
79148;BMP280;68562;51.600;6.524;2024-02-21T13:05:00;1011.1;;;15.6
79148;BMP280;68562;51.600;6.524;2024-02-21T13:10:00;1010.8;;;15.8
79148;BMP280;68562;51.600;6.524;2024-02-21T13:15:00;1010.8;;;15.8
79148;BMP280;68562;51.600;6.524;2024-02-21T13:20:00;1010.5;;;15.9
79148;BMP280;68562;51.600;6.524;2024-02-21T13:25:02;1010.4;;;16.0
79148;BMP280;68562;51.600;6.524;2024-02-21T13:30:00;1009.9;;;16.1
79148;BMP280;68562;51.600;6.524;2024-02-21T13:35:00;1009.9;;;16.0
79148;BMP280;68562;51.600;6.524;2024-02-21T13:40:00;1009.9;;;15.8
79148;BMP280;68562;51.600;6.524;2024-02-21T13:45:00;1009.8;;;15.8
79148;BMP280;68562;51.600;6.524;2024-02-21T13:50:00;1009.7;;;15.8
79148;BMP280;68562;51.600;6.524;2024-02-21T13:55:00;1009.6;;;15.7
79148;BMP280;68562;51.600;6.524;2024-02-21T14:00:00;1009.6;;;15.7
79148;BMP280;68562;51.600;6.524;2024-02-21T14:05:00;1009.6;;;15.5
79148;BMP280;68562;51.600;6.524;2024-02-21T14:10:00;1009.3;;;15.5
79148;BMP280;68562;51.600;6.524;2024-02-21T14:15:00;1009.3;;;15.6
79148;BMP280;68562;51.600;6.524;2024-02-21T14:20:00;1009.2;;;15.6
79148;BMP280;68562;51.600;6.524;2024-02-21T14:25:01;1009.0;;;15.8
79148;BMP280;68562;51.600;6.524;2024-02-21T14:30:00;1009.0;;;15.8
79148;BMP280;68562;51.600;6.524;2024-02-21T14:35:00;1008.8;;;15.6
79148;BMP280;68562;51.600;6.524;2024-02-21T14:40:00;1008.8;;;15.6
79148;BMP280;68562;51.600;6.524;2024-02-21T14:45:00;1008.6;;;15.4
79148;BMP280;68562;51.600;6.524;2024-02-21T14:50:02;1008.2;;;15.5
79148;BMP280;68562;51.600;6.524;2024-02-21T14:55:00;1008.1;;;15.6
79148;BMP280;68562;51.600;6.524;2024-02-21T15:00:00;1008.0;;;15.5
79148;BMP280;68562;51.600;6.524;2024-02-21T15:05:00;1007.9;;;15.5
79148;BMP280;68562;51.600;6.524;2024-02-21T15:10:00;1007.8;;;15.5
79148;BMP280;68562;51.600;6.524;2024-02-21T15:15:00;1007.7;;;15.4
79148;BMP280;68562;51.600;6.524;2024-02-21T15:20:00;1007.6;;;15.3
79148;BMP280;68562;51.600;6.524;2024-02-21T15:25:02;1007.5;;;15.4
79148;BMP280;68562;51.600;6.524;2024-02-21T15:30:01;1007.5;;;15.2
79148;BMP280;68562;51.600;6.524;2024-02-21T15:35:00;1007.3;;;15.3
79148;BMP280;68562;51.600;6.524;2024-02-21T15:40:01;1007.1;;;15.3
79148;BMP280;68562;51.600;6.524;2024-02-21T15:45:00;1007.0;;;15.0
79148;BMP280;68562;51.600;6.524;2024-02-21T15:50:00;1007.0;;;15.0
79148;BMP280;68562;51.600;6.524;2024-02-21T15:55:01;1006.9;;;15.1
79148;BMP280;68562;51.600;6.524;2024-02-21T16:00:00;1006.9;;;15.2
79148;BMP280;68562;51.600;6.524;2024-02-21T16:05:00;1006.7;;;15.0
79148;BMP280;68562;51.600;6.524;2024-02-21T16:10:01;1006.7;;;14.8
79148;BMP280;68562;51.600;6.524;2024-02-21T16:15:00;1006.6;;;14.7
79148;BMP280;68562;51.600;6.524;2024-02-21T16:20:01;1006.5;;;14.3
79148;BMP280;68562;51.600;6.524;2024-02-21T16:25:00;1006.4;;;14.1
79148;BMP280;68562;51.600;6.524;2024-02-21T16:30:00;1006.3;;;13.8
79148;BMP280;68562;51.600;6.524;2024-02-21T16:35:00;1006.2;;;13.5
79148;BMP280;68562;51.600;6.524;2024-02-21T16:40:01;1006.2;;;13.4
79148;BMP280;68562;51.600;6.524;2024-02-21T16:45:00;1006.1;;;13.4
79148;BMP280;68562;51.600;6.524;2024-02-21T16:50:00;1005.9;;;13.1
79148;BMP280;68562;51.600;6.524;2024-02-21T16:55:00;1005.8;;;13.1
79148;BMP280;68562;51.600;6.524;2024-02-21T17:00:00;1005.5;;;13.0
79148;BMP280;68562;51.600;6.524;2024-02-21T17:05:00;1005.6;;;12.9
79148;BMP280;68562;51.600;6.524;2024-02-21T17:10:00;1005.2;;;13.0
79148;BMP280;68562;51.600;6.524;2024-02-21T17:15:00;1005.2;;;12.9
79148;BMP280;68562;51.600;6.524;2024-02-21T17:20:00;1005.1;;;13.0
79148;BMP280;68562;51.600;6.524;2024-02-21T17:25:00;1004.9;;;13.1
79148;BMP280;68562;51.600;6.524;2024-02-21T17:30:00;1004.9;;;12.7
79148;BMP280;68562;51.600;6.524;2024-02-21T17:35:00;1004.7;;;12.6
79148;BMP280;68562;51.600;6.524;2024-02-21T17:40:00;1004.7;;;12.6
79148;BMP280;68562;51.600;6.524;2024-02-21T17:45:00;1004.7;;;12.7
79148;BMP280;68562;51.600;6.524;2024-02-21T17:50:00;1004.6;;;12.5
79148;BMP280;68562;51.600;6.524;2024-02-21T17:55:00;1004.6;;;12.4
79148;BMP280;68562;51.600;6.524;2024-02-21T18:00:00;1004.6;;;12.4
79148;BMP280;68562;51.600;6.524;2024-02-21T18:05:01;1004.5;;;12.5
79148;BMP280;68562;51.600;6.524;2024-02-21T18:10:00;1004.4;;;12.6
79148;BMP280;68562;51.600;6.524;2024-02-21T18:15:00;1004.4;;;12.6
79148;BMP280;68562;51.600;6.524;2024-02-21T18:20:00;1004.3;;;12.4
79148;BMP280;68562;51.600;6.524;2024-02-21T18:25:00;1004.2;;;12.5
79148;BMP280;68562;51.600;6.524;2024-02-21T18:30:00;1004.1;;;12.6
79148;BMP280;68562;51.600;6.524;2024-02-21T18:35:00;1004.0;;;12.4
79148;BMP280;68562;51.600;6.524;2024-02-21T18:40:00;1003.9;;;12.3
79148;BMP280;68562;51.600;6.524;2024-02-21T18:45:00;1003.9;;;12.2
79148;BMP280;68562;51.600;6.524;2024-02-21T18:50:00;1003.8;;;12.1
79148;BMP280;68562;51.600;6.524;2024-02-21T18:55:01;1003.7;;;12.1
79148;BMP280;68562;51.600;6.524;2024-02-21T19:00:00;1003.5;;;12.1
79148;BMP280;68562;51.600;6.524;2024-02-21T19:05:00;1003.5;;;12.2
79148;BMP280;68562;51.600;6.524;2024-02-21T19:10:00;1003.3;;;12.3
79148;BMP280;68562;51.600;6.524;2024-02-21T19:15:00;1003.2;;;12.3
79148;BMP280;68562;51.600;6.524;2024-02-21T19:20:00;1003.0;;;12.2
79148;BMP280;68562;51.600;6.524;2024-02-21T19:25:00;1003.0;;;12.1
79148;BMP280;68562;51.600;6.524;2024-02-21T19:30:00;1002.8;;;12.2
79148;BMP280;68562;51.600;6.524;2024-02-21T19:35:02;1002.6;;;12.1
79148;BMP280;68562;51.600;6.524;2024-02-21T19:40:00;1002.8;;;12.1
79148;BMP280;68562;51.600;6.524;2024-02-21T19:45:00;1002.6;;;12.1
79148;BMP280;68562;51.600;6.524;2024-02-21T19:50:01;1002.4;;;12.2
79148;BMP280;68562;51.600;6.524;2024-02-21T19:55:00;1002.4;;;12.2
79148;BMP280;68562;51.600;6.524;2024-02-21T20:00:00;1002.3;;;12.1
79148;BMP280;68562;51.600;6.524;2024-02-21T20:05:00;1002.3;;;12.0
79148;BMP280;68562;51.600;6.524;2024-02-21T20:10:00;1002.2;;;12.1
79148;BMP280;68562;51.600;6.524;2024-02-21T20:15:00;1002.0;;;12.1
79148;BMP280;68562;51.600;6.524;2024-02-21T20:20:01;1001.9;;;12.2
79148;BMP280;68562;51.600;6.524;2024-02-21T20:25:00;1001.7;;;12.1
79148;BMP280;68562;51.600;6.524;2024-02-21T20:30:00;1001.6;;;12.1
79148;BMP280;68562;51.600;6.524;2024-02-21T20:35:01;1001.4;;;12.1
79148;BMP280;68562;51.600;6.524;2024-02-21T20:40:00;1001.3;;;12.1
79148;BMP280;68562;51.600;6.524;2024-02-21T20:45:00;1001.2;;;12.1
79148;BMP280;68562;51.600;6.524;2024-02-21T20:50:00;1001.1;;;12.2
79148;BMP280;68562;51.600;6.524;2024-02-21T20:55:00;1001.1;;;12.1
79148;BMP280;68562;51.600;6.524;2024-02-21T21:00:00;1000.9;;;12.2
79148;BMP280;68562;51.600;6.524;2024-02-21T21:05:00;1000.9;;;12.1
79148;BMP280;68562;51.600;6.524;2024-02-21T21:10:00;1000.8;;;12.2
79148;BMP280;68562;51.600;6.524;2024-02-21T21:15:00;1000.8;;;12.4
79148;BMP280;68562;51.600;6.524;2024-02-21T21:20:01;1000.7;;;12.4
79148;BMP280;68562;51.600;6.524;2024-02-21T21:25:00;1000.6;;;12.4
79148;BMP280;68562;51.600;6.524;2024-02-21T21:30:00;1000.5;;;12.4
79148;BMP280;68562;51.600;6.524;2024-02-21T21:35:00;1000.6;;;12.2
79148;BMP280;68562;51.600;6.524;2024-02-21T21:40:00;1000.3;;;12.3
79148;BMP280;68562;51.600;6.524;2024-02-21T21:45:00;1000.2;;;12.3
79148;BMP280;68562;51.600;6.524;2024-02-21T21:50:00;1000.2;;;12.3
79148;BMP280;68562;51.600;6.524;2024-02-21T21:55:00;1000.2;;;12.3
79148;BMP280;68562;51.600;6.524;2024-02-21T22:00:00;1000.1;;;12.3
79148;BMP280;68562;51.600;6.524;2024-02-21T22:05:00;1000.0;;;12.4
79148;BMP280;68562;51.600;6.524;2024-02-21T22:10:00;1000.0;;;12.3
79148;BMP280;68562;51.600;6.524;2024-02-21T22:15:00;999.9;;;12.4
79148;BMP280;68562;51.600;6.524;2024-02-21T22:20:00;999.8;;;12.4
79148;BMP280;68562;51.600;6.524;2024-02-21T22:25:00;999.7;;;12.4
79148;BMP280;68562;51.600;6.524;2024-02-21T22:30:00;999.6;;;12.4
79148;BMP280;68562;51.600;6.524;2024-02-21T22:35:00;999.6;;;12.6
79148;BMP280;68562;51.600;6.524;2024-02-21T22:40:00;999.4;;;12.6
79148;BMP280;68562;51.600;6.524;2024-02-21T22:45:01;999.4;;;12.8
79148;BMP280;68562;51.600;6.524;2024-02-21T22:50:00;999.3;;;12.7
79148;BMP280;68562;51.600;6.524;2024-02-21T22:55:01;999.2;;;12.7
79148;BMP280;68562;51.600;6.524;2024-02-21T23:00:00;999.1;;;12.7
79148;BMP280;68562;51.600;6.524;2024-02-21T23:05:00;999.1;;;12.7
79148;BMP280;68562;51.600;6.524;2024-02-21T23:10:01;998.9;;;12.6
79148;BMP280;68562;51.600;6.524;2024-02-21T23:15:00;999.0;;;12.9
79148;BMP280;68562;51.600;6.524;2024-02-21T23:20:00;998.8;;;12.8
79148;BMP280;68562;51.600;6.524;2024-02-21T23:25:00;998.8;;;12.9
79148;BMP280;68562;51.600;6.524;2024-02-21T23:30:00;998.7;;;13.0
79148;BMP280;68562;51.600;6.524;2024-02-21T23:35:00;998.6;;;13.0
79148;BMP280;68562;51.600;6.524;2024-02-21T23:40:00;998.5;;;13.0
79148;BMP280;68562;51.600;6.524;2024-02-21T23:45:01;998.4;;;13.0
79148;BMP280;68562;51.600;6.524;2024-02-21T23:50:00;998.3;;;12.9
79148;BMP280;68562;51.600;6.524;2024-02-21T23:55:00;998.3;;;13.0
